sensor_id;sensor_type;location;lat;lon;timestamp;pressure;altitude;pressure_sealevel;temperature;humidity
72210;BME280;60113;48.762;12.302;2023-02-23T00:00:34;96852.00;;;1.72;90.45
72210;BME280;60113;48.762;12.302;2023-02-23T00:03:00;96853.06;;;1.68;89.64
72210;BME280;60113;48.762;12.302;2023-02-23T00:05:30;96856.66;;;1.66;85.41
72210;BME280;60113;48.762;12.302;2023-02-23T00:07:55;96853.97;;;1.67;86.77
72210;BME280;60113;48.762;12.302;2023-02-23T00:10:23;96855.78;;;1.65;88.50
72210;BME280;60113;48.762;12.302;2023-02-23T00:12:56;96855.03;;;1.63;90.57
72210;BME280;60113;48.762;12.302;2023-02-23T00:15:32;96852.56;;;1.60;91.05
72210;BME280;60113;48.762;12.302;2023-02-23T00:17:58;96851.19;;;1.53;89.92
72210;BME280;60113;48.762;12.302;2023-02-23T00:20:24;96850.41;;;1.50;91.16
72210;BME280;60113;48.762;12.302;2023-02-23T00:22:52;96844.53;;;1.47;93.97
72210;BME280;60113;48.762;12.302;2023-02-23T00:25:17;96842.78;;;1.47;95.26
72210;BME280;60113;48.762;12.302;2023-02-23T00:27:43;96842.97;;;1.43;95.07
72210;BME280;60113;48.762;12.302;2023-02-23T00:30:10;96848.16;;;1.43;94.86
72210;BME280;60113;48.762;12.302;2023-02-23T00:32:39;96841.16;;;1.45;92.55
72210;BME280;60113;48.762;12.302;2023-02-23T00:35:10;96848.88;;;1.46;91.23
72210;BME280;60113;48.762;12.302;2023-02-23T00:37:45;96848.88;;;1.46;89.59
72210;BME280;60113;48.762;12.302;2023-02-23T00:40:10;96850.53;;;1.47;91.17
72210;BME280;60113;48.762;12.302;2023-02-23T00:42:43;96854.06;;;1.46;91.20
72210;BME280;60113;48.762;12.302;2023-02-23T00:45:09;96857.69;;;1.42;91.83
72210;BME280;60113;48.762;12.302;2023-02-23T00:47:37;96855.19;;;1.41;89.73
72210;BME280;60113;48.762;12.302;2023-02-23T00:50:02;96851.75;;;1.40;90.99
72210;BME280;60113;48.762;12.302;2023-02-23T00:52:29;96852.94;;;1.33;81.29
72210;BME280;60113;48.762;12.302;2023-02-23T00:54:54;96853.47;;;1.40;90.56
72210;BME280;60113;48.762;12.302;2023-02-23T00:57:22;96864.69;;;1.40;90.09
72210;BME280;60113;48.762;12.302;2023-02-23T00:59:51;96850.41;;;1.50;95.35
72210;BME280;60113;48.762;12.302;2023-02-23T01:02:19;96857.41;;;1.48;99.80
72210;BME280;60113;48.762;12.302;2023-02-23T01:04:44;96859.44;;;1.42;100.00
72210;BME280;60113;48.762;12.302;2023-02-23T01:07:13;96860.34;;;1.41;100.00
72210;BME280;60113;48.762;12.302;2023-02-23T01:09:41;96859.16;;;1.29;99.95
72210;BME280;60113;48.762;12.302;2023-02-23T01:12:07;96861.44;;;1.35;98.20
72210;BME280;60113;48.762;12.302;2023-02-23T01:14:33;96862.38;;;1.34;98.01
72210;BME280;60113;48.762;12.302;2023-02-23T01:16:58;96867.47;;;1.35;98.08
72210;BME280;60113;48.762;12.302;2023-02-23T01:19:24;96851.41;;;1.29;90.45
72210;BME280;60113;48.762;12.302;2023-02-23T01:21:49;96850.47;;;1.30;90.10
72210;BME280;60113;48.762;12.302;2023-02-23T01:24:14;96854.59;;;1.34;90.32
72210;BME280;60113;48.762;12.302;2023-02-23T01:26:41;96857.91;;;1.37;91.34
72210;BME280;60113;48.762;12.302;2023-02-23T01:29:13;96848.38;;;1.38;89.87
72210;BME280;60113;48.762;12.302;2023-02-23T01:31:40;96844.75;;;1.42;90.98
72210;BME280;60113;48.762;12.302;2023-02-23T01:34:06;96848.16;;;1.43;89.57
72210;BME280;60113;48.762;12.302;2023-02-23T01:36:32;96835.78;;;1.49;86.84
72210;BME280;60113;48.762;12.302;2023-02-23T01:38:58;96839.84;;;1.55;86.69
72210;BME280;60113;48.762;12.302;2023-02-23T01:41:24;96841.25;;;1.62;85.44
72210;BME280;60113;48.762;12.302;2023-02-23T01:44:01;96844.31;;;1.71;89.12
72210;BME280;60113;48.762;12.302;2023-02-23T01:46:33;96845.09;;;1.73;90.28
72210;BME280;60113;48.762;12.302;2023-02-23T01:48:59;96839.91;;;1.73;89.45
72210;BME280;60113;48.762;12.302;2023-02-23T01:51:26;96836.25;;;1.77;88.31
72210;BME280;60113;48.762;12.302;2023-02-23T01:54:34;96840.31;;;1.83;88.48
72210;BME280;60113;48.762;12.302;2023-02-23T01:56:41;96843.72;;;1.83;88.54
72210;BME280;60113;48.762;12.302;2023-02-23T01:59:08;96847.72;;;1.91;91.88
72210;BME280;60113;48.762;12.302;2023-02-23T02:01:38;96845.88;;;1.93;90.45
72210;BME280;60113;48.762;12.302;2023-02-23T02:04:06;96850.84;;;1.97;84.63
72210;BME280;60113;48.762;12.302;2023-02-23T02:06:32;96847.28;;;2.00;79.92
72210;BME280;60113;48.762;12.302;2023-02-23T02:09:00;96847.19;;;2.02;80.90
72210;BME280;60113;48.762;12.302;2023-02-23T02:11:30;96847.03;;;2.05;84.71
72210;BME280;60113;48.762;12.302;2023-02-23T02:14:10;96844.38;;;2.06;85.11
72210;BME280;60113;48.762;12.302;2023-02-23T02:24:56;96832.31;;;1.87;87.67
72210;BME280;60113;48.762;12.302;2023-02-23T02:30:25;96830.47;;;1.72;87.61
72210;BME280;60113;48.762;12.302;2023-02-23T02:33:05;96832.63;;;1.62;92.02
72210;BME280;60113;48.762;12.302;2023-02-23T02:40:41;96838.94;;;1.56;87.48
72210;BME280;60113;48.762;12.302;2023-02-23T02:43:19;96840.53;;;1.59;90.30
72210;BME280;60113;48.762;12.302;2023-02-23T02:46:33;96840.75;;;1.54;92.60
72210;BME280;60113;48.762;12.302;2023-02-23T02:48:47;96843.63;;;1.48;88.56
72210;BME280;60113;48.762;12.302;2023-02-23T02:54:00;96841.31;;;1.42;82.08
72210;BME280;60113;48.762;12.302;2023-02-23T02:56:30;96831.44;;;1.50;91.87
72210;BME280;60113;48.762;12.302;2023-02-23T02:58:57;96833.19;;;1.49;92.17
72210;BME280;60113;48.762;12.302;2023-02-23T03:01:23;96841.88;;;1.48;82.78
72210;BME280;60113;48.762;12.302;2023-02-23T03:04:21;96834.94;;;1.49;79.06
72210;BME280;60113;48.762;12.302;2023-02-23T03:07:10;96835.72;;;1.51;81.94
72210;BME280;60113;48.762;12.302;2023-02-23T03:10:03;96836.63;;;1.50;84.62
72210;BME280;60113;48.762;12.302;2023-02-23T03:12:56;96840.97;;;1.49;86.77
72210;BME280;60113;48.762;12.302;2023-02-23T03:15:47;96841.88;;;1.48;81.00
72210;BME280;60113;48.762;12.302;2023-02-23T03:18:44;96851.25;;;1.51;85.66
72210;BME280;60113;48.762;12.302;2023-02-23T03:22:17;96851.13;;;1.54;88.79
72210;BME280;60113;48.762;12.302;2023-02-23T03:24:38;96856.44;;;1.51;86.66
72210;BME280;60113;48.762;12.302;2023-02-23T03:30:36;96861.69;;;1.49;84.93
72210;BME280;60113;48.762;12.302;2023-02-23T03:36:34;96860.97;;;1.46;88.98
72210;BME280;60113;48.762;12.302;2023-02-23T03:39:24;96857.50;;;1.47;89.25
72210;BME280;60113;48.762;12.302;2023-02-23T03:42:11;96864.47;;;1.45;89.55
72210;BME280;60113;48.762;12.302;2023-02-23T03:44:58;96860.06;;;1.47;90.63
72210;BME280;60113;48.762;12.302;2023-02-23T03:47:44;96860.81;;;1.49;91.93
72210;BME280;60113;48.762;12.302;2023-02-23T03:50:33;96858.16;;;1.50;91.01
72210;BME280;60113;48.762;12.302;2023-02-23T03:53:21;96866.84;;;1.49;91.27
72210;BME280;60113;48.762;12.302;2023-02-23T03:56:07;96864.28;;;1.49;91.08
72210;BME280;60113;48.762;12.302;2023-02-23T03:58:54;96864.53;;;1.43;88.11
72210;BME280;60113;48.762;12.302;2023-02-23T04:01:39;96868.06;;;1.42;85.07
72210;BME280;60113;48.762;12.302;2023-02-23T04:04:29;96872.25;;;1.45;86.97
72210;BME280;60113;48.762;12.302;2023-02-23T04:07:15;96868.75;;;1.46;88.40
72210;BME280;60113;48.762;12.302;2023-02-23T04:09:59;96865.13;;;1.50;89.41
72210;BME280;60113;48.762;12.302;2023-02-23T04:12:50;96866.78;;;1.51;85.14
72210;BME280;60113;48.762;12.302;2023-02-23T04:15:37;96859.59;;;1.58;88.45
72210;BME280;60113;48.762;12.302;2023-02-23T04:18:05;96869.66;;;1.64;88.01
72210;BME280;60113;48.762;12.302;2023-02-23T04:20:30;96868.69;;;1.67;88.30
72210;BME280;60113;48.762;12.302;2023-02-23T04:22:56;96868.47;;;1.71;91.57
72210;BME280;60113;48.762;12.302;2023-02-23T04:25:21;96865.03;;;1.71;89.08
72210;BME280;60113;48.762;12.302;2023-02-23T04:27:50;96870.22;;;1.71;87.19
72210;BME280;60113;48.762;12.302;2023-02-23T04:30:15;96865.81;;;1.73;88.35
72210;BME280;60113;48.762;12.302;2023-02-23T04:32:41;96867.53;;;1.72;89.39
72210;BME280;60113;48.762;12.302;2023-02-23T04:35:08;96864.13;;;1.72;87.18
72210;BME280;60113;48.762;12.302;2023-02-23T04:37:33;96863.28;;;1.71;86.05
72210;BME280;60113;48.762;12.302;2023-02-23T04:39:59;96867.47;;;1.74;88.58
72210;BME280;60113;48.762;12.302;2023-02-23T04:42:24;96870.97;;;1.73;87.41
72210;BME280;60113;48.762;12.302;2023-02-23T04:44:50;96868.41;;;1.73;89.92
72210;BME280;60113;48.762;12.302;2023-02-23T04:47:15;96861.53;;;1.72;90.05
72210;BME280;60113;48.762;12.302;2023-02-23T04:49:41;96866.66;;;1.73;88.67
72210;BME280;60113;48.762;12.302;2023-02-23T04:52:06;96864.81;;;1.75;90.67
72210;BME280;60113;48.762;12.302;2023-02-23T04:54:32;96863.00;;;1.78;91.94
72210;BME280;60113;48.762;12.302;2023-02-23T04:56:57;96866.50;;;1.77;91.61
72210;BME280;60113;48.762;12.302;2023-02-23T04:59:22;96868.31;;;1.74;91.44
72210;BME280;60113;48.762;12.302;2023-02-23T05:01:51;96864.13;;;1.72;92.04
72210;BME280;60113;48.762;12.302;2023-02-23T05:04:16;96859.91;;;1.69;92.75
72210;BME280;60113;48.762;12.302;2023-02-23T05:06:44;96859.09;;;1.69;92.57
72210;BME280;60113;48.762;12.302;2023-02-23T05:09:09;96865.94;;;1.70;92.52
72210;BME280;60113;48.762;12.302;2023-02-23T05:11:35;96864.22;;;1.70;93.87
72210;BME280;60113;48.762;12.302;2023-02-23T05:14:01;96861.69;;;1.69;92.02
72210;BME280;60113;48.762;12.302;2023-02-23T05:16:26;96863.34;;;1.70;89.68
72210;BME280;60113;48.762;12.302;2023-02-23T05:18:52;96870.97;;;1.73;89.51
72210;BME280;60113;48.762;12.302;2023-02-23T05:21:18;96864.13;;;1.72;87.51
72210;BME280;60113;48.762;12.302;2023-02-23T05:23:43;96868.41;;;1.73;90.11
72210;BME280;60113;48.762;12.302;2023-02-23T05:26:10;96871.84;;;1.73;89.62
72210;BME280;60113;48.762;12.302;2023-02-23T05:28:37;96872.44;;;1.79;89.94
72210;BME280;60113;48.762;12.302;2023-02-23T05:31:02;96878.41;;;1.81;89.59
72210;BME280;60113;48.762;12.302;2023-02-23T05:33:28;96874.88;;;1.82;88.76
72210;BME280;60113;48.762;12.302;2023-02-23T05:35:54;96872.16;;;1.85;92.24
72210;BME280;60113;48.762;12.302;2023-02-23T05:38:19;96882.53;;;1.85;93.69
72210;BME280;60113;48.762;12.302;2023-02-23T05:40:46;96877.56;;;1.80;86.22
72210;BME280;60113;48.762;12.302;2023-02-23T05:43:11;96881.78;;;1.83;87.29
72210;BME280;60113;48.762;12.302;2023-02-23T05:45:40;96882.81;;;1.79;83.81
72210;BME280;60113;48.762;12.302;2023-02-23T05:48:06;96877.56;;;1.80;84.70
72210;BME280;60113;48.762;12.302;2023-02-23T05:50:31;96876.72;;;1.80;87.52
72210;BME280;60113;48.762;12.302;2023-02-23T05:52:56;96881.13;;;1.78;87.55
72210;BME280;60113;48.762;12.302;2023-02-23T05:55:22;96879.53;;;1.75;88.47
72210;BME280;60113;48.762;12.302;2023-02-23T05:57:47;96880.56;;;1.71;88.10
72210;BME280;60113;48.762;12.302;2023-02-23T06:00:14;96884.16;;;1.68;90.20
72210;BME280;60113;48.762;12.302;2023-02-23T06:02:40;96887.72;;;1.66;91.82
72210;BME280;60113;48.762;12.302;2023-02-23T06:05:06;96894.00;;;1.60;88.75
72210;BME280;60113;48.762;12.302;2023-02-23T06:07:32;96892.41;;;1.57;85.44
72210;BME280;60113;48.762;12.302;2023-02-23T06:09:57;96897.44;;;1.60;87.55
72210;BME280;60113;48.762;12.302;2023-02-23T06:12:23;96894.94;;;1.59;87.84
72210;BME280;60113;48.762;12.302;2023-02-23T06:14:48;96901.91;;;1.57;85.22
72210;BME280;60113;48.762;12.302;2023-02-23T06:17:15;96901.16;;;1.55;80.34
72210;BME280;60113;48.762;12.302;2023-02-23T06:19:40;96902.91;;;1.54;78.41
72210;BME280;60113;48.762;12.302;2023-02-23T06:22:06;96905.44;;;1.56;85.03
72210;BME280;60113;48.762;12.302;2023-02-23T06:24:31;96898.38;;;1.59;87.97
72210;BME280;60113;48.762;12.302;2023-02-23T06:26:58;96905.09;;;1.64;89.00
72210;BME280;60113;48.762;12.302;2023-02-23T06:29:24;96899.69;;;1.68;90.62
72210;BME280;60113;48.762;12.302;2023-02-23T06:31:49;96914.19;;;1.72;90.36
72210;BME280;60113;48.762;12.302;2023-02-23T06:34:15;96907.91;;;1.78;91.87
72210;BME280;60113;48.762;12.302;2023-02-23T06:36:40;96912.00;;;1.82;94.97
72210;BME280;60113;48.762;12.302;2023-02-23T06:39:06;96923.38;;;1.80;94.41
72210;BME280;60113;48.762;12.302;2023-02-23T06:41:32;96920.00;;;1.78;94.37
72210;BME280;60113;48.762;12.302;2023-02-23T06:43:57;96920.06;;;1.76;94.70
72210;BME280;60113;48.762;12.302;2023-02-23T06:46:23;96924.47;;;1.74;93.79
72210;BME280;60113;48.762;12.302;2023-02-23T06:48:48;96924.41;;;1.75;92.53
72210;BME280;60113;48.762;12.302;2023-02-23T06:51:14;96922.59;;;1.78;93.53
72210;BME280;60113;48.762;12.302;2023-02-23T06:53:39;96931.22;;;1.78;90.03
72210;BME280;60113;48.762;12.302;2023-02-23T06:56:05;96926.50;;;1.86;92.79
72210;BME280;60113;48.762;12.302;2023-02-23T06:58:30;96932.31;;;1.92;95.09
72210;BME280;60113;48.762;12.302;2023-02-23T07:00:56;96928.59;;;1.97;96.28
72210;BME280;60113;48.762;12.302;2023-02-23T07:03:22;96932.56;;;2.05;94.53
72210;BME280;60113;48.762;12.302;2023-02-23T07:05:47;96927.16;;;2.09;93.30
72210;BME280;60113;48.762;12.302;2023-02-23T07:08:14;96929.19;;;2.22;92.71
72210;BME280;60113;48.762;12.302;2023-02-23T07:10:40;96939.97;;;2.32;92.55
72210;BME280;60113;48.762;12.302;2023-02-23T07:13:08;96934.34;;;2.41;93.19
72210;BME280;60113;48.762;12.302;2023-02-23T07:15:34;96938.31;;;2.48;93.23
72210;BME280;60113;48.762;12.302;2023-02-23T07:17:59;96940.47;;;2.58;92.95
72210;BME280;60113;48.762;12.302;2023-02-23T07:20:25;96940.94;;;2.66;92.66
72210;BME280;60113;48.762;12.302;2023-02-23T07:22:50;96943.97;;;2.74;92.05
72210;BME280;60113;48.762;12.302;2023-02-23T07:25:16;96946.19;;;2.82;91.23
72210;BME280;60113;48.762;12.302;2023-02-23T07:27:41;96951.94;;;2.89;91.85
72210;BME280;60113;48.762;12.302;2023-02-23T07:30:07;96943.69;;;2.98;91.61
72210;BME280;60113;48.762;12.302;2023-02-23T07:32:32;96945.97;;;3.05;91.11
72210;BME280;60113;48.762;12.302;2023-02-23T07:34:57;96947.19;;;3.15;91.70
72210;BME280;60113;48.762;12.302;2023-02-23T07:37:23;96950.25;;;3.23;90.41
72210;BME280;60113;48.762;12.302;2023-02-23T07:39:48;96954.03;;;3.34;89.79
72210;BME280;60113;48.762;12.302;2023-02-23T07:42:13;96951.72;;;3.45;91.70
72210;BME280;60113;48.762;12.302;2023-02-23T07:44:39;96946.13;;;3.53;87.83
72210;BME280;60113;48.762;12.302;2023-02-23T07:47:05;96942.88;;;3.66;86.90
72210;BME280;60113;48.762;12.302;2023-02-23T07:49:30;96939.72;;;3.77;89.54
72210;BME280;60113;48.762;12.302;2023-02-23T07:51:56;96944.09;;;3.92;91.45
72210;BME280;60113;48.762;12.302;2023-02-23T07:54:22;96940.06;;;4.03;92.07
72210;BME280;60113;48.762;12.302;2023-02-23T07:56:49;96940.91;;;4.19;92.29
72210;BME280;60113;48.762;12.302;2023-02-23T07:59:14;96941.72;;;4.36;93.04
72210;BME280;60113;48.762;12.302;2023-02-23T08:01:40;96937.19;;;4.56;94.05
72210;BME280;60113;48.762;12.302;2023-02-23T08:04:05;96940.41;;;4.75;92.23
72210;BME280;60113;48.762;12.302;2023-02-23T08:06:30;96937.47;;;4.96;91.38
72210;BME280;60113;48.762;12.302;2023-02-23T08:08:59;96952.00;;;5.15;88.91
72210;BME280;60113;48.762;12.302;2023-02-23T08:11:27;96940.50;;;5.34;88.46
72210;BME280;60113;48.762;12.302;2023-02-23T08:13:53;96949.91;;;5.51;88.83
72210;BME280;60113;48.762;12.302;2023-02-23T08:16:18;96945.53;;;5.66;87.44
72210;BME280;60113;48.762;12.302;2023-02-23T08:18:44;96951.41;;;5.84;88.46
72210;BME280;60113;48.762;12.302;2023-02-23T08:21:10;96947.56;;;6.05;88.56
72210;BME280;60113;48.762;12.302;2023-02-23T08:23:35;96943.50;;;6.28;89.21
72210;BME280;60113;48.762;12.302;2023-02-23T08:26:04;96951.56;;;6.53;88.63
72210;BME280;60113;48.762;12.302;2023-02-23T08:28:29;96944.94;;;6.74;87.40
72210;BME280;60113;48.762;12.302;2023-02-23T08:30:55;96941.66;;;6.98;86.93
72210;BME280;60113;48.762;12.302;2023-02-23T08:33:20;96941.66;;;7.24;85.64
72210;BME280;60113;48.762;12.302;2023-02-23T08:35:46;96937.50;;;7.48;85.13
72210;BME280;60113;48.762;12.302;2023-02-23T08:38:11;96937.56;;;7.72;84.98
72210;BME280;60113;48.762;12.302;2023-02-23T08:40:36;96938.91;;;7.91;84.74
72210;BME280;60113;48.762;12.302;2023-02-23T08:43:02;96941.06;;;8.10;83.79
72210;BME280;60113;48.762;12.302;2023-02-23T08:45:27;96941.84;;;8.24;83.47
72210;BME280;60113;48.762;12.302;2023-02-23T08:47:55;96947.97;;;8.36;83.43
72210;BME280;60113;48.762;12.302;2023-02-23T08:50:21;96941.38;;;8.43;83.43
72210;BME280;60113;48.762;12.302;2023-02-23T08:52:46;96947.19;;;8.60;83.00
72210;BME280;60113;48.762;12.302;2023-02-23T08:55:11;96955.59;;;8.77;82.59
72210;BME280;60113;48.762;12.302;2023-02-23T08:57:38;96947.69;;;8.90;81.27
72210;BME280;60113;48.762;12.302;2023-02-23T09:00:03;96952.59;;;9.06;82.30
72210;BME280;60113;48.762;12.302;2023-02-23T09:02:38;96944.31;;;9.23;83.07
72210;BME280;60113;48.762;12.302;2023-02-23T09:05:03;96950.91;;;9.41;81.48
72210;BME280;60113;48.762;12.302;2023-02-23T09:07:32;96942.22;;;9.52;81.44
72210;BME280;60113;48.762;12.302;2023-02-23T09:09:57;96940.41;;;9.52;81.17
72210;BME280;60113;48.762;12.302;2023-02-23T09:12:22;96945.66;;;9.52;81.19
72210;BME280;60113;48.762;12.302;2023-02-23T09:14:48;96945.56;;;9.65;80.51
72210;BME280;60113;48.762;12.302;2023-02-23T09:17:15;96939.81;;;9.71;80.34
72210;BME280;60113;48.762;12.302;2023-02-23T09:19:40;96941.13;;;9.77;80.41
72210;BME280;60113;48.762;12.302;2023-02-23T09:22:05;96947.47;;;9.74;79.35
72210;BME280;60113;48.762;12.302;2023-02-23T09:24:31;96950.56;;;9.68;78.67
72210;BME280;60113;48.762;12.302;2023-02-23T09:26:57;96944.81;;;9.63;78.81
72210;BME280;60113;48.762;12.302;2023-02-23T09:29:22;96946.75;;;9.61;79.33
72210;BME280;60113;48.762;12.302;2023-02-23T09:31:47;96951.75;;;9.64;79.98
72210;BME280;60113;48.762;12.302;2023-02-23T09:34:15;96953.91;;;9.70;79.38
72210;BME280;60113;48.762;12.302;2023-02-23T09:36:40;96947.56;;;9.61;78.78
72210;BME280;60113;48.762;12.302;2023-02-23T09:39:05;96965.13;;;9.61;78.98
72210;BME280;60113;48.762;12.302;2023-02-23T09:44:17;96952.56;;;9.65;78.87
72210;BME280;60113;48.762;12.302;2023-02-23T09:49:15;96956.06;;;9.77;80.09
72210;BME280;60113;48.762;12.302;2023-02-23T09:51:43;96957.81;;;9.99;80.01
72210;BME280;60113;48.762;12.302;2023-02-23T09:54:11;96953.28;;;10.12;76.96
72210;BME280;60113;48.762;12.302;2023-02-23T09:56:39;96955.69;;;10.04;75.88
72210;BME280;60113;48.762;12.302;2023-02-23T09:59:06;96955.66;;;10.27;77.68
72210;BME280;60113;48.762;12.302;2023-02-23T10:04:17;96951.69;;;10.56;76.67
72210;BME280;60113;48.762;12.302;2023-02-23T10:06:47;96957.56;;;10.48;74.92
72210;BME280;60113;48.762;12.302;2023-02-23T10:09:23;96962.44;;;10.30;74.03
72210;BME280;60113;48.762;12.302;2023-02-23T10:11:52;96962.22;;;10.21;75.19
72210;BME280;60113;48.762;12.302;2023-02-23T10:19:20;96962.97;;;10.12;76.22
72210;BME280;60113;48.762;12.302;2023-02-23T10:22:01;96962.22;;;10.10;77.79
72210;BME280;60113;48.762;12.302;2023-02-23T10:24:29;96962.00;;;10.01;77.43
72210;BME280;60113;48.762;12.302;2023-02-23T10:27:14;96961.19;;;9.78;77.53
72210;BME280;60113;48.762;12.302;2023-02-23T10:29:41;96963.06;;;9.53;79.13
72210;BME280;60113;48.762;12.302;2023-02-23T10:34:38;96961.16;;;9.55;79.44
72210;BME280;60113;48.762;12.302;2023-02-23T10:37:05;96962.25;;;9.64;79.07
72210;BME280;60113;48.762;12.302;2023-02-23T10:39:33;96968.31;;;9.53;78.96
72210;BME280;60113;48.762;12.302;2023-02-23T10:42:00;96963.31;;;9.50;78.98
72210;BME280;60113;48.762;12.302;2023-02-23T10:44:26;96962.47;;;9.49;79.51
72210;BME280;60113;48.762;12.302;2023-02-23T10:49:21;96959.94;;;9.25;80.25
72210;BME280;60113;48.762;12.302;2023-02-23T10:52:02;96965.25;;;9.12;80.80
72210;BME280;60113;48.762;12.302;2023-02-23T10:54:34;96963.06;;;9.06;81.43
72210;BME280;60113;48.762;12.302;2023-02-23T10:57:06;96960.22;;;9.09;81.66
72210;BME280;60113;48.762;12.302;2023-02-23T10:59:32;96950.88;;;9.18;81.13
72210;BME280;60113;48.762;12.302;2023-02-23T11:01:57;96946.09;;;9.23;80.18
72210;BME280;60113;48.762;12.302;2023-02-23T11:04:26;96945.03;;;9.25;80.90
72210;BME280;60113;48.762;12.302;2023-02-23T11:09:33;96941.91;;;9.20;81.13
72210;BME280;60113;48.762;12.302;2023-02-23T11:12:03;96946.47;;;9.30;81.20
72210;BME280;60113;48.762;12.302;2023-02-23T11:14:36;96940.75;;;9.36;80.49
72210;BME280;60113;48.762;12.302;2023-02-23T11:17:01;96945.63;;;9.29;80.91
72210;BME280;60113;48.762;12.302;2023-02-23T11:19:33;96943.34;;;9.24;80.36
72210;BME280;60113;48.762;12.302;2023-02-23T11:22:01;96936.72;;;9.32;79.78
72210;BME280;60113;48.762;12.302;2023-02-23T11:24:28;96938.47;;;9.43;79.27
72210;BME280;60113;48.762;12.302;2023-02-23T11:26:58;96930.03;;;9.39;80.06
72210;BME280;60113;48.762;12.302;2023-02-23T11:29:37;96936.59;;;9.45;80.22
72210;BME280;60113;48.762;12.302;2023-02-23T11:32:20;96932.06;;;9.47;79.87
72210;BME280;60113;48.762;12.302;2023-02-23T11:34:46;96930.03;;;9.50;79.70
72210;BME280;60113;48.762;12.302;2023-02-23T11:42:22;96922.41;;;9.59;80.24
72210;BME280;60113;48.762;12.302;2023-02-23T11:45:03;96914.19;;;9.63;79.95
72210;BME280;60113;48.762;12.302;2023-02-23T11:47:29;96912.88;;;9.69;79.13
72210;BME280;60113;48.762;12.302;2023-02-23T11:49:55;96910.97;;;9.71;78.63
72210;BME280;60113;48.762;12.302;2023-02-23T11:52:21;96909.44;;;9.69;78.14
72210;BME280;60113;48.762;12.302;2023-02-23T11:54:58;96905.97;;;9.68;79.66
72210;BME280;60113;48.762;12.302;2023-02-23T11:57:31;96911.94;;;9.70;79.58
72210;BME280;60113;48.762;12.302;2023-02-23T11:59:58;96908.84;;;9.77;79.04
72210;BME280;60113;48.762;12.302;2023-02-23T12:02:27;96907.75;;;9.79;80.57
72210;BME280;60113;48.762;12.302;2023-02-23T12:05:06;96899.50;;;9.84;79.93
72210;BME280;60113;48.762;12.302;2023-02-23T12:07:36;96898.31;;;9.88;79.79
72210;BME280;60113;48.762;12.302;2023-02-23T12:15:27;96899.75;;;9.92;78.52
72210;BME280;60113;48.762;12.302;2023-02-23T12:18:01;96901.78;;;9.88;79.20
72210;BME280;60113;48.762;12.302;2023-02-23T12:20:33;96901.78;;;9.88;80.14
72210;BME280;60113;48.762;12.302;2023-02-23T12:23:02;96900.81;;;9.90;79.53
72210;BME280;60113;48.762;12.302;2023-02-23T12:28:04;96896.75;;;9.85;79.47
72210;BME280;60113;48.762;12.302;2023-02-23T12:31:16;96893.41;;;9.83;79.78
72210;BME280;60113;48.762;12.302;2023-02-23T12:41:10;96883.75;;;9.95;78.44
72210;BME280;60113;48.762;12.302;2023-02-23T12:43:38;96894.72;;;10.00;78.70
72210;BME280;60113;48.762;12.302;2023-02-23T12:46:09;96886.59;;;10.04;79.88
72210;BME280;60113;48.762;12.302;2023-02-23T12:51:03;96883.84;;;10.05;77.14
72210;BME280;60113;48.762;12.302;2023-02-23T12:53:37;96883.97;;;10.04;77.29
72210;BME280;60113;48.762;12.302;2023-02-23T13:01:03;96878.59;;;10.05;77.09
72210;BME280;60113;48.762;12.302;2023-02-23T13:11:11;96877.53;;;9.96;78.23
72210;BME280;60113;48.762;12.302;2023-02-23T13:16:16;96866.81;;;9.88;77.57
72210;BME280;60113;48.762;12.302;2023-02-23T13:19:03;96870.66;;;9.84;78.16
72210;BME280;60113;48.762;12.302;2023-02-23T13:22:20;96886.50;;;9.82;77.96
72210;BME280;60113;48.762;12.302;2023-02-23T13:24:24;96877.78;;;9.82;77.80
72210;BME280;60113;48.762;12.302;2023-02-23T13:27:04;96877.69;;;9.83;78.21
72210;BME280;60113;48.762;12.302;2023-02-23T13:32:04;96868.50;;;9.89;77.49
72210;BME280;60113;48.762;12.302;2023-02-23T13:34:30;96873.75;;;9.89;78.52
72210;BME280;60113;48.762;12.302;2023-02-23T13:36:57;96868.38;;;9.91;77.67
72210;BME280;60113;48.762;12.302;2023-02-23T13:42:14;96868.00;;;9.95;77.18
72210;BME280;60113;48.762;12.302;2023-02-23T13:49:40;96862.13;;;10.03;77.88
72210;BME280;60113;48.762;12.302;2023-02-23T13:52:08;96860.09;;;10.07;77.65
72210;BME280;60113;48.762;12.302;2023-02-23T13:54:37;96861.50;;;10.11;76.89
72210;BME280;60113;48.762;12.302;2023-02-23T13:57:15;96857.81;;;10.13;76.84
72210;BME280;60113;48.762;12.302;2023-02-23T13:59:43;96852.56;;;10.13;77.17
72210;BME280;60113;48.762;12.302;2023-02-23T14:04:47;96857.19;;;10.21;77.18
72210;BME280;60113;48.762;12.302;2023-02-23T14:07:16;96859.22;;;10.29;77.54
72210;BME280;60113;48.762;12.302;2023-02-23T14:09:47;96851.41;;;10.39;76.15
72210;BME280;60113;48.762;12.302;2023-02-23T14:12:21;96853.28;;;10.48;76.26
72210;BME280;60113;48.762;12.302;2023-02-23T14:14:47;96855.03;;;10.59;75.01
72210;BME280;60113;48.762;12.302;2023-02-23T14:19:41;96851.78;;;10.67;75.76
72210;BME280;60113;48.762;12.302;2023-02-23T14:22:14;96849.34;;;10.75;75.46
72210;BME280;60113;48.762;12.302;2023-02-23T14:24:41;96843.22;;;10.86;75.89
72210;BME280;60113;48.762;12.302;2023-02-23T14:29:38;96850.75;;;11.01;74.78
72210;BME280;60113;48.762;12.302;2023-02-23T14:34:49;96843.56;;;11.03;74.11
72210;BME280;60113;48.762;12.302;2023-02-23T14:37:25;96843.50;;;10.93;73.52
72210;BME280;60113;48.762;12.302;2023-02-23T14:39:52;96846.91;;;10.84;73.77
72210;BME280;60113;48.762;12.302;2023-02-23T14:42:20;96845.25;;;10.83;74.29
72210;BME280;60113;48.762;12.302;2023-02-23T14:44:45;96846.53;;;10.88;75.17
72210;BME280;60113;48.762;12.302;2023-02-23T14:47:16;96840.34;;;10.99;74.56
72210;BME280;60113;48.762;12.302;2023-02-23T14:49:43;96842.72;;;11.03;74.52
72210;BME280;60113;48.762;12.302;2023-02-23T14:52:22;96840.94;;;11.03;74.08
72210;BME280;60113;48.762;12.302;2023-02-23T14:54:48;96841.19;;;11.00;74.23
72210;BME280;60113;48.762;12.302;2023-02-23T14:57:21;96847.56;;;10.97;74.96